sensor_id;sensor_type;location;lat;lon;timestamp;pressure;altitude;pressure_sealevel;temperature;humidity
79198;BME280;68628;48.714;9.472;2023-04-01T00:00:56;96765.72;;;8.51;74.67
79198;BME280;68628;48.714;9.472;2023-04-01T00:03:24;96766.91;;;8.48;74.97
79198;BME280;68628;48.714;9.472;2023-04-01T00:05:51;96761.81;;;8.40;75.60
79198;BME280;68628;48.714;9.472;2023-04-01T00:08:17;96766.84;;;8.35;74.78
79198;BME280;68628;48.714;9.472;2023-04-01T00:10:43;96757.84;;;8.51;75.36
79198;BME280;68628;48.714;9.472;2023-04-01T00:13:09;96756.81;;;8.45;74.56
79198;BME280;68628;48.714;9.472;2023-04-01T00:15:36;96757.16;;;8.36;74.82
79198;BME280;68628;48.714;9.472;2023-04-01T00:18:04;96761.63;;;8.42;75.18
79198;BME280;68628;48.714;9.472;2023-04-01T00:20:32;96759.78;;;8.42;75.50
79198;BME280;68628;48.714;9.472;2023-04-01T00:22:58;96755.22;;;8.51;74.81
79198;BME280;68628;48.714;9.472;2023-04-01T00:25:24;96757.25;;;8.56;74.31
79198;BME280;68628;48.714;9.472;2023-04-01T00:27:50;96746.94;;;8.54;74.92
79198;BME280;68628;48.714;9.472;2023-04-01T00:30:16;96749.56;;;8.54;74.87
79198;BME280;68628;48.714;9.472;2023-04-01T00:32:42;96749.78;;;8.53;74.38
79198;BME280;68628;48.714;9.472;2023-04-01T00:35:09;96747.13;;;8.46;75.02
79198;BME280;68628;48.714;9.472;2023-04-01T00:37:37;96754.13;;;8.39;74.91
79198;BME280;68628;48.714;9.472;2023-04-01T00:40:07;96762.81;;;8.32;75.26
79198;BME280;68628;48.714;9.472;2023-04-01T00:42:33;96755.00;;;8.46;73.93
79198;BME280;68628;48.714;9.472;2023-04-01T00:45:26;96751.50;;;8.39;74.28
79198;BME280;68628;48.714;9.472;2023-04-01T00:48:03;96755.53;;;8.41;74.36
79198;BME280;68628;48.714;9.472;2023-04-01T00:50:34;96755.78;;;8.46;73.43
79198;BME280;68628;48.714;9.472;2023-04-01T00:53:02;96751.38;;;8.47;73.22
79198;BME280;68628;48.714;9.472;2023-04-01T00:55:33;96757.22;;;8.49;73.29
79198;BME280;68628;48.714;9.472;2023-04-01T00:58:07;96752.59;;;8.58;73.23
79198;BME280;68628;48.714;9.472;2023-04-01T01:00:38;96769.34;;;8.50;73.01
79198;BME280;68628;48.714;9.472;2023-04-01T01:03:07;96753.81;;;8.55;72.65
79198;BME280;68628;48.714;9.472;2023-04-01T01:11:32;96749.78;;;8.59;72.98
79198;BME280;68628;48.714;9.472;2023-04-01T01:14:29;96746.34;;;8.52;73.20
79198;BME280;68628;48.714;9.472;2023-04-01T01:20:41;96747.53;;;8.49;73.03
79198;BME280;68628;48.714;9.472;2023-04-01T01:26:55;96741.81;;;8.39;73.96
79198;BME280;68628;48.714;9.472;2023-04-01T01:32:37;96748.06;;;8.38;74.74
79198;BME280;68628;48.714;9.472;2023-04-01T01:38:04;96744.25;;;8.41;74.12
79198;BME280;68628;48.714;9.472;2023-04-01T01:40:36;96742.66;;;8.46;73.92
79198;BME280;68628;48.714;9.472;2023-04-01T01:43:12;96739.78;;;8.41;74.17
79198;BME280;68628;48.714;9.472;2023-04-01T01:45:47;96744.41;;;8.26;75.43
79198;BME280;68628;48.714;9.472;2023-04-01T01:48:18;96739.53;;;8.23;75.25
79198;BME280;68628;48.714;9.472;2023-04-01T01:50:46;96741.75;;;8.12;76.20
79198;BME280;68628;48.714;9.472;2023-04-01T01:53:14;96740.09;;;8.11;75.94
79198;BME280;68628;48.714;9.472;2023-04-01T01:55:42;96737.31;;;8.20;75.22
79198;BME280;68628;48.714;9.472;2023-04-01T01:58:20;96743.34;;;8.20;75.92
79198;BME280;68628;48.714;9.472;2023-04-01T02:00:58;96734.31;;;8.29;75.70
79198;BME280;68628;48.714;9.472;2023-04-01T02:03:30;96747.78;;;8.13;75.94
79198;BME280;68628;48.714;9.472;2023-04-01T02:06:04;96755.44;;;8.08;76.30
79198;BME280;68628;48.714;9.472;2023-04-01T02:09:01;96745.91;;;8.00;76.56
79198;BME280;68628;48.714;9.472;2023-04-01T02:11:49;96741.25;;;7.95;75.12
79198;BME280;68628;48.714;9.472;2023-04-01T02:14:22;96744.69;;;8.03;76.01
79198;BME280;68628;48.714;9.472;2023-04-01T02:16:58;96749.94;;;8.03;76.22
79198;BME280;68628;48.714;9.472;2023-04-01T02:19:45;96753.38;;;7.96;75.83
79198;BME280;68628;48.714;9.472;2023-04-01T02:22:20;96754.41;;;8.02;75.77
79198;BME280;68628;48.714;9.472;2023-04-01T02:24:53;96756.00;;;7.96;76.62
79198;BME280;68628;48.714;9.472;2023-04-01T02:27:23;96748.13;;;7.96;75.30
79198;BME280;68628;48.714;9.472;2023-04-01T02:29:51;96765.84;;;7.94;75.97
79198;BME280;68628;48.714;9.472;2023-04-01T02:32:19;96756.16;;;7.95;76.82
79198;BME280;68628;48.714;9.472;2023-04-01T02:34:46;96754.72;;;7.92;75.71
79198;BME280;68628;48.714;9.472;2023-04-01T02:37:14;96757.53;;;7.84;76.02
79198;BME280;68628;48.714;9.472;2023-04-01T02:39:40;96748.13;;;7.96;75.20
79198;BME280;68628;48.714;9.472;2023-04-01T02:42:08;96756.56;;;7.92;76.07
79198;BME280;68628;48.714;9.472;2023-04-01T02:44:34;96752.50;;;7.89;75.89
79198;BME280;68628;48.714;9.472;2023-04-01T02:47:00;96766.25;;;7.91;75.80
79198;BME280;68628;48.714;9.472;2023-04-01T02:49:26;96763.22;;;7.94;75.89
79198;BME280;68628;48.714;9.472;2023-04-01T02:51:51;96752.06;;;7.86;75.25
79198;BME280;68628;48.714;9.472;2023-04-01T02:54:18;96762.75;;;7.84;75.21
79198;BME280;68628;48.714;9.472;2023-04-01T02:56:44;96761.72;;;7.78;76.32
79198;BME280;68628;48.714;9.472;2023-04-01T02:59:11;96758.50;;;7.83;75.39
79198;BME280;68628;48.714;9.472;2023-04-01T03:01:37;96755.66;;;7.78;75.08
79198;BME280;68628;48.714;9.472;2023-04-01T03:04:04;96762.88;;;7.69;74.56
79198;BME280;68628;48.714;9.472;2023-04-01T03:06:30;96763.03;;;7.61;75.71
79198;BME280;68628;48.714;9.472;2023-04-01T03:08:55;96756.22;;;7.66;74.77
79198;BME280;68628;48.714;9.472;2023-04-01T03:11:21;96758.22;;;7.64;74.96
79198;BME280;68628;48.714;9.472;2023-04-01T03:13:47;96757.22;;;7.65;74.29
79198;BME280;68628;48.714;9.472;2023-04-01T03:16:12;96757.97;;;7.59;75.08
79198;BME280;68628;48.714;9.472;2023-04-01T03:18:38;96755.88;;;7.48;75.08
79198;BME280;68628;48.714;9.472;2023-04-01T03:21:22;96760.31;;;7.47;75.91
79198;BME280;68628;48.714;9.472;2023-04-01T03:23:48;96754.22;;;7.40;75.46
79198;BME280;68628;48.714;9.472;2023-04-01T03:26:14;96760.69;;;7.44;75.19
79198;BME280;68628;48.714;9.472;2023-04-01T03:28:40;96761.94;;;7.48;75.22
79198;BME280;68628;48.714;9.472;2023-04-01T03:31:06;96760.25;;;7.41;76.14
79198;BME280;68628;48.714;9.472;2023-04-01T03:33:32;96757.84;;;7.39;75.46
79198;BME280;68628;48.714;9.472;2023-04-01T03:35:58;96760.88;;;7.43;75.93
79198;BME280;68628;48.714;9.472;2023-04-01T03:38:24;96763.91;;;7.40;75.00
79198;BME280;68628;48.714;9.472;2023-04-01T03:40:49;96766.28;;;7.34;75.80
79198;BME280;68628;48.714;9.472;2023-04-01T03:43:15;96764.84;;;7.32;76.10
79198;BME280;68628;48.714;9.472;2023-04-01T03:45:46;96766.53;;;7.40;75.10
79198;BME280;68628;48.714;9.472;2023-04-01T03:48:14;96765.09;;;7.37;75.16
79198;BME280;68628;48.714;9.472;2023-04-01T03:50:40;96766.09;;;7.36;75.23
79198;BME280;68628;48.714;9.472;2023-04-01T03:53:06;96778.28;;;7.50;75.22
79198;BME280;68628;48.714;9.472;2023-04-01T03:55:32;96768.72;;;7.36;75.53
79198;BME280;68628;48.714;9.472;2023-04-01T03:57:59;96764.78;;;7.25;75.45
79198;BME280;68628;48.714;9.472;2023-04-01T04:00:27;96777.94;;;7.32;74.12
79198;BME280;68628;48.714;9.472;2023-04-01T04:02:53;96769.84;;;7.27;74.43
79198;BME280;68628;48.714;9.472;2023-04-01T04:05:21;96759.84;;;7.37;74.50
79198;BME280;68628;48.714;9.472;2023-04-01T04:07:46;96758.72;;;7.25;74.24
79198;BME280;68628;48.714;9.472;2023-04-01T04:10:12;96766.44;;;7.26;74.72
79198;BME280;68628;48.714;9.472;2023-04-01T04:12:37;96762.69;;;7.14;74.81
79198;BME280;68628;48.714;9.472;2023-04-01T04:15:03;96755.81;;;7.13;75.45
79198;BME280;68628;48.714;9.472;2023-04-01T04:17:29;96754.56;;;7.09;75.68
79198;BME280;68628;48.714;9.472;2023-04-01T04:19:55;96759.56;;;7.04;75.20
79198;BME280;68628;48.714;9.472;2023-04-01T04:22:20;96755.22;;;7.11;74.73
79198;BME280;68628;48.714;9.472;2023-04-01T04:24:46;96759.31;;;6.98;74.84
79198;BME280;68628;48.714;9.472;2023-04-01T04:27:11;96760.44;;;6.89;75.42
79198;BME280;68628;48.714;9.472;2023-04-01T04:29:37;96757.06;;;6.95;75.00
79198;BME280;68628;48.714;9.472;2023-04-01T04:32:03;96762.31;;;6.95;75.04
79198;BME280;68628;48.714;9.472;2023-04-01T04:34:28;96757.16;;;6.80;76.60
79198;BME280;68628;48.714;9.472;2023-04-01T04:36:54;96758.13;;;6.79;76.12
79198;BME280;68628;48.714;9.472;2023-04-01T04:39:20;96762.19;;;6.82;76.31
79198;BME280;68628;48.714;9.472;2023-04-01T04:41:45;96752.97;;;6.86;75.71
79198;BME280;68628;48.714;9.472;2023-04-01T04:44:11;96753.34;;;6.83;75.99
79198;BME280;68628;48.714;9.472;2023-04-01T04:46:36;96748.66;;;6.78;76.04
79198;BME280;68628;48.714;9.472;2023-04-01T04:49:04;96753.97;;;6.85;75.51
79198;BME280;68628;48.714;9.472;2023-04-01T04:51:30;96746.03;;;6.78;76.24
79198;BME280;68628;48.714;9.472;2023-04-01T04:53:59;96745.63;;;6.75;76.53
79198;BME280;68628;48.714;9.472;2023-04-01T04:56:25;96748.84;;;6.77;76.13
79198;BME280;68628;48.714;9.472;2023-04-01T04:58:52;96747.72;;;6.86;76.10
79198;BME280;68628;48.714;9.472;2023-04-01T05:01:18;96749.91;;;6.82;76.31
79198;BME280;68628;48.714;9.472;2023-04-01T05:03:45;96747.03;;;6.77;76.50
79198;BME280;68628;48.714;9.472;2023-04-01T05:06:13;96746.09;;;6.85;76.21
79198;BME280;68628;48.714;9.472;2023-04-01T05:08:41;96747.25;;;6.97;75.47
79198;BME280;68628;48.714;9.472;2023-04-01T05:11:17;96750.91;;;7.03;75.20
79198;BME280;68628;48.714;9.472;2023-04-01T05:13:44;96749.09;;;7.04;74.91
79198;BME280;68628;48.714;9.472;2023-04-01T05:16:13;96762.06;;;6.90;75.22
79198;BME280;68628;48.714;9.472;2023-04-01T05:18:40;96759.41;;;7.05;75.65
79198;BME280;68628;48.714;9.472;2023-04-01T05:21:11;96760.44;;;7.11;74.93
79198;BME280;68628;48.714;9.472;2023-04-01T05:23:38;96756.00;;;7.11;75.71
79198;BME280;68628;48.714;9.472;2023-04-01T05:26:11;96750.81;;;7.18;75.39
79198;BME280;68628;48.714;9.472;2023-04-01T05:28:39;96746.25;;;7.27;75.10
79198;BME280;68628;48.714;9.472;2023-04-01T05:31:06;96746.13;;;7.35;74.73
79198;BME280;68628;48.714;9.472;2023-04-01T05:33:32;96750.50;;;7.28;74.83
79198;BME280;68628;48.714;9.472;2023-04-01T05:38:33;96746.16;;;7.42;74.64
79198;BME280;68628;48.714;9.472;2023-04-01T05:41:00;96743.03;;;7.53;73.51
79198;BME280;68628;48.714;9.472;2023-04-01T05:43:27;96753.13;;;7.56;73.70
79198;BME280;68628;48.714;9.472;2023-04-01T05:45:53;96742.94;;;7.75;72.88
79198;BME280;68628;48.714;9.472;2023-04-01T05:48:18;96745.13;;;7.71;73.27
79198;BME280;68628;48.714;9.472;2023-04-01T05:50:44;96745.81;;;7.80;72.99
79198;BME280;68628;48.714;9.472;2023-04-01T05:53:10;96741.38;;;7.87;71.87
79198;BME280;68628;48.714;9.472;2023-04-01T05:55:36;96745.03;;;7.86;71.78
79198;BME280;68628;48.714;9.472;2023-04-01T05:58:01;96755.53;;;7.86;72.58
79198;BME280;68628;48.714;9.472;2023-04-01T06:00:27;96735.22;;;8.08;71.06
79198;BME280;68628;48.714;9.472;2023-04-01T06:02:53;96764.06;;;8.01;70.85
79198;BME280;68628;48.714;9.472;2023-04-01T06:05:21;96745.78;;;8.15;71.38
79198;BME280;68628;48.714;9.472;2023-04-01T06:07:55;96749.19;;;8.09;70.47
79198;BME280;68628;48.714;9.472;2023-04-01T06:14:08;96743.56;;;8.25;70.14
79198;BME280;68628;48.714;9.472;2023-04-01T06:16:55;96739.16;;;8.26;69.92
79198;BME280;68628;48.714;9.472;2023-04-01T06:19:55;96742.22;;;8.36;68.55
79198;BME280;68628;48.714;9.472;2023-04-01T06:22:41;96728.69;;;8.32;68.35
79198;BME280;68628;48.714;9.472;2023-04-01T06:25:39;96726.03;;;8.26;68.15
79198;BME280;68628;48.714;9.472;2023-04-01T06:31:25;96722.03;;;8.43;67.26
79198;BME280;68628;48.714;9.472;2023-04-01T06:34:28;96716.41;;;8.46;67.10
79198;BME280;68628;48.714;9.472;2023-04-01T06:40:21;96722.13;;;8.83;66.88
79198;BME280;68628;48.714;9.472;2023-04-01T06:45:56;96732.25;;;8.80;66.52
79198;BME280;68628;48.714;9.472;2023-04-01T06:54:40;96730.03;;;8.97;66.18
79198;BME280;68628;48.714;9.472;2023-04-01T06:57:29;96739.16;;;9.14;65.42
79198;BME280;68628;48.714;9.472;2023-04-01T06:59:59;96714.28;;;9.24;66.41
79198;BME280;68628;48.714;9.472;2023-04-01T07:02:43;96720.13;;;9.39;66.32
79198;BME280;68628;48.714;9.472;2023-04-01T07:05:22;96726.41;;;9.11;65.68
79198;BME280;68628;48.714;9.472;2023-04-01T07:07:53;96724.41;;;8.93;67.40
79198;BME280;68628;48.714;9.472;2023-04-01T07:10:39;96718.94;;;9.15;66.68
79198;BME280;68628;48.714;9.472;2023-04-01T07:16:27;96720.97;;;9.26;65.12
79198;BME280;68628;48.714;9.472;2023-04-01T07:25:12;96732.28;;;8.93;66.58
79198;BME280;68628;48.714;9.472;2023-04-01T07:27:41;96723.38;;;9.01;66.49
79198;BME280;68628;48.714;9.472;2023-04-01T07:30:40;96715.28;;;9.16;65.64
79198;BME280;68628;48.714;9.472;2023-04-01T07:36:38;96724.19;;;8.95;65.79
79198;BME280;68628;48.714;9.472;2023-04-01T07:39:33;96714.50;;;9.15;66.49
79198;BME280;68628;48.714;9.472;2023-04-01T07:42:35;96722.97;;;8.97;66.54
79198;BME280;68628;48.714;9.472;2023-04-01T07:48:39;96719.75;;;9.29;66.59
79198;BME280;68628;48.714;9.472;2023-04-01T07:57:22;96722.97;;;9.24;66.24
79198;BME280;68628;48.714;9.472;2023-04-01T08:03:14;96727.22;;;9.39;65.20
79198;BME280;68628;48.714;9.472;2023-04-01T08:06:24;96718.13;;;9.34;66.26
79198;BME280;68628;48.714;9.472;2023-04-01T08:15:00;96719.94;;;9.27;66.94
79198;BME280;68628;48.714;9.472;2023-04-01T08:22:51;96719.75;;;9.22;66.63
79198;BME280;68628;48.714;9.472;2023-04-01T08:25:26;96732.06;;;9.28;65.97
79198;BME280;68628;48.714;9.472;2023-04-01T08:28:30;96731.47;;;9.20;66.36
79198;BME280;68628;48.714;9.472;2023-04-01T08:31:06;96722.19;;;9.17;67.01
79198;BME280;68628;48.714;9.472;2023-04-01T08:33:39;96717.50;;;9.32;67.19
79198;BME280;68628;48.714;9.472;2023-04-01T08:36:16;96730.06;;;9.30;66.76
79198;BME280;68628;48.714;9.472;2023-04-01T08:38:57;96728.22;;;9.17;66.40
79198;BME280;68628;48.714;9.472;2023-04-01T08:41:53;96727.44;;;9.30;67.40
79198;BME280;68628;48.714;9.472;2023-04-01T08:49:54;96718.50;;;9.18;66.90
79198;BME280;68628;48.714;9.472;2023-04-01T08:52:36;96734.28;;;9.45;66.44
79198;BME280;68628;48.714;9.472;2023-04-01T09:01:02;96738.34;;;9.07;68.36
79198;BME280;68628;48.714;9.472;2023-04-01T09:04:05;96738.75;;;9.31;69.53
79198;BME280;68628;48.714;9.472;2023-04-01T09:07:40;96744.41;;;9.08;69.50
79198;BME280;68628;48.714;9.472;2023-04-01T09:13:36;96726.59;;;9.03;73.27
79198;BME280;68628;48.714;9.472;2023-04-01T09:19:17;96741.94;;;8.73;74.18
79198;BME280;68628;48.714;9.472;2023-04-01T09:39:43;96743.97;;;8.84;73.29
79198;BME280;68628;48.714;9.472;2023-04-01T09:45:57;96764.22;;;9.04;71.85
79198;BME280;68628;48.714;9.472;2023-04-01T09:48:46;96752.28;;;9.08;71.39
79198;BME280;68628;48.714;9.472;2023-04-01T09:54:01;96749.66;;;9.08;70.04
79198;BME280;68628;48.714;9.472;2023-04-01T10:06:11;96776.31;;;9.11;71.53
79198;BME280;68628;48.714;9.472;2023-04-01T10:13:07;96791.88;;;8.93;72.68
79198;BME280;68628;48.714;9.472;2023-04-01T10:16:09;96768.63;;;8.96;74.06
79198;BME280;68628;48.714;9.472;2023-04-01T10:22:16;96773.06;;;8.82;73.21
79198;BME280;68628;48.714;9.472;2023-04-01T10:32:42;96783.13;;;8.65;74.04
79198;BME280;68628;48.714;9.472;2023-04-01T11:02:57;96774.53;;;9.39;71.45
79198;BME280;68628;48.714;9.472;2023-04-01T11:06:16;96766.44;;;9.27;70.46
79198;BME280;68628;48.714;9.472;2023-04-01T11:18:41;96777.94;;;9.06;71.98
79198;BME280;68628;48.714;9.472;2023-04-01T11:24:59;96770.50;;;9.23;72.08
79198;BME280;68628;48.714;9.472;2023-04-01T11:31:17;96778.16;;;9.24;71.17
79198;BME280;68628;48.714;9.472;2023-04-01T11:33:58;96776.94;;;9.47;70.63
79198;BME280;68628;48.714;9.472;2023-04-01T11:39:49;96772.31;;;9.36;70.32
79198;BME280;68628;48.714;9.472;2023-04-01T11:45:21;96782.22;;;9.47;69.47
79198;BME280;68628;48.714;9.472;2023-04-01T11:48:15;96781.19;;;9.55;69.61
79198;BME280;68628;48.714;9.472;2023-04-01T11:51:10;96781.59;;;9.58;68.39
79198;BME280;68628;48.714;9.472;2023-04-01T11:54:10;96777.16;;;9.59;69.20
79198;BME280;68628;48.714;9.472;2023-04-01T11:57:15;96793.09;;;9.77;68.09
79198;BME280;68628;48.714;9.472;2023-04-01T12:00:05;96790.09;;;9.60;67.59
79198;BME280;68628;48.714;9.472;2023-04-01T12:14:58;96808.44;;;10.14;67.48
79198;BME280;68628;48.714;9.472;2023-04-01T12:17:50;96802.72;;;10.17;67.45
79198;BME280;68628;48.714;9.472;2023-04-01T12:24:10;96807.06;;;9.84;68.26
79198;BME280;68628;48.714;9.472;2023-04-01T12:32:45;96813.56;;;9.62;68.55
79198;BME280;68628;48.714;9.472;2023-04-01T12:35:37;96811.94;;;9.61;68.45
79198;BME280;68628;48.714;9.472;2023-04-01T12:43:55;96851.81;;;9.71;69.10
79198;BME280;68628;48.714;9.472;2023-04-01T12:46:55;96815.78;;;9.58;68.86
79198;BME280;68628;48.714;9.472;2023-04-01T12:55:45;96833.56;;;9.63;67.30
79198;BME280;68628;48.714;9.472;2023-04-01T13:13:30;96826.44;;;10.17;66.48
79198;BME280;68628;48.714;9.472;2023-04-01T13:16:19;96831.91;;;10.09;65.43
79198;BME280;68628;48.714;9.472;2023-04-01T13:19:14;96822.97;;;10.23;65.79
79198;BME280;68628;48.714;9.472;2023-04-01T13:25:10;96827.47;;;10.03;66.00
79198;BME280;68628;48.714;9.472;2023-04-01T13:28:29;96828.09;;;9.91;64.88
79198;BME280;68628;48.714;9.472;2023-04-01T13:37:15;96833.13;;;10.06;64.53
79198;BME280;68628;48.714;9.472;2023-04-01T13:39:55;96835.78;;;9.99;65.53
79198;BME280;68628;48.714;9.472;2023-04-01T13:51:41;96865.72;;;10.05;64.69
79198;BME280;68628;48.714;9.472;2023-04-01T13:58:02;96856.00;;;10.12;63.57
79198;BME280;68628;48.714;9.472;2023-04-01T14:09:44;96841.19;;;10.38;62.01
79198;BME280;68628;48.714;9.472;2023-04-01T14:12:30;96837.50;;;10.53;62.71
79198;BME280;68628;48.714;9.472;2023-04-01T14:15:25;96849.41;;;10.62;63.31
79198;BME280;68628;48.714;9.472;2023-04-01T14:21:13;96852.72;;;10.50;61.72
79198;BME280;68628;48.714;9.472;2023-04-01T14:29:20;96845.53;;;10.71;62.07
79198;BME280;68628;48.714;9.472;2023-04-01T14:34:55;96846.59;;;10.57;61.74
79198;BME280;68628;48.714;9.472;2023-04-01T14:38:06;96849.31;;;10.82;62.12
79198;BME280;68628;48.714;9.472;2023-04-01T14:44:05;96858.75;;;10.58;62.20
79198;BME280;68628;48.714;9.472;2023-04-01T14:49:52;96866.09;;;10.42;62.57
79198;BME280;68628;48.714;9.472;2023-04-01T14:52:31;96875.00;;;10.21;63.80
79198;BME280;68628;48.714;9.472;2023-04-01T14:55:15;96872.38;;;10.34;64.38
79198;BME280;68628;48.714;9.472;2023-04-01T14:58:13;96867.50;;;10.31;65.49
79198;BME280;68628;48.714;9.472;2023-04-01T15:03:48;96874.63;;;10.24;65.28
79198;BME280;68628;48.714;9.472;2023-04-01T15:29:28;96888.38;;;10.40;63.96
79198;BME280;68628;48.714;9.472;2023-04-01T15:32:17;96887.19;;;10.15;62.84
79198;BME280;68628;48.714;9.472;2023-04-01T15:35:43;96890.78;;;10.28;63.87
79198;BME280;68628;48.714;9.472;2023-04-01T15:38:44;96885.13;;;10.31;64.04
79198;BME280;68628;48.714;9.472;2023-04-01T15:44:59;96896.91;;;10.35;63.55
79198;BME280;68628;48.714;9.472;2023-04-01T15:48:02;96906.41;;;10.03;63.48
79198;BME280;68628;48.714;9.472;2023-04-01T15:51:01;96907.03;;;9.91;63.73
79198;BME280;68628;48.714;9.472;2023-04-01T15:53:47;96911.69;;;10.03;63.82
79198;BME280;68628;48.714;9.472;2023-04-01T15:56:40;96902.78;;;10.10;64.60
79198;BME280;68628;48.714;9.472;2023-04-01T15:59:39;96916.56;;;9.99;64.78
79198;BME280;68628;48.714;9.472;2023-04-01T16:02:18;96913.50;;;10.09;64.44
79198;BME280;68628;48.714;9.472;2023-04-01T16:05:16;96911.88;;;10.08;64.10
79198;BME280;68628;48.714;9.472;2023-04-01T16:10:57;96918.38;;;9.98;65.49
79198;BME280;68628;48.714;9.472;2023-04-01T16:16:40;96918.38;;;9.92;66.67
79198;BME280;68628;48.714;9.472;2023-04-01T16:22:05;96920.19;;;9.84;67.27
79198;BME280;68628;48.714;9.472;2023-04-01T16:33:27;96924.84;;;10.03;66.00
79198;BME280;68628;48.714;9.472;2023-04-01T16:36:22;96928.50;;;10.15;66.48
79198;BME280;68628;48.714;9.472;2023-04-01T16:45:15;96938.19;;;10.08;66.42
79198;BME280;68628;48.714;9.472;2023-04-01T16:47:46;96936.38;;;9.88;67.00
79198;BME280;68628;48.714;9.472;2023-04-01T16:51:10;96930.53;;;9.93;67.35
79198;BME280;68628;48.714;9.472;2023-04-01T16:53:43;96931.72;;;9.97;67.02
79198;BME280;68628;48.714;9.472;2023-04-01T16:56:38;96922.22;;;10.03;67.42
79198;BME280;68628;48.714;9.472;2023-04-01T17:08:03;96946.72;;;9.96;68.07
79198;BME280;68628;48.714;9.472;2023-04-01T17:11:09;96942.66;;;10.07;67.76
79198;BME280;68628;48.714;9.472;2023-04-01T17:16:50;96944.50;;;10.20;67.88
79198;BME280;68628;48.714;9.472;2023-04-01T17:22:47;96945.28;;;10.21;67.54
79198;BME280;68628;48.714;9.472;2023-04-01T17:28:45;96947.72;;;9.82;69.28
79198;BME280;68628;48.714;9.472;2023-04-01T17:31:46;96961.09;;;9.87;68.60
79198;BME280;68628;48.714;9.472;2023-04-01T17:37:54;96962.69;;;9.81;67.92
79198;BME280;68628;48.714;9.472;2023-04-01T17:40:38;96957.41;;;9.81;68.40
79198;BME280;68628;48.714;9.472;2023-04-01T17:43:19;96970.19;;;9.78;68.02
79198;BME280;68628;48.714;9.472;2023-04-01T17:46:19;96964.09;;;9.77;67.46
79198;BME280;68628;48.714;9.472;2023-04-01T17:52:00;96977.88;;;9.86;67.02
79198;BME280;68628;48.714;9.472;2023-04-01T17:54:48;96974.03;;;9.75;67.59
79198;BME280;68628;48.714;9.472;2023-04-01T17:58:06;96981.94;;;9.82;67.26
79198;BME280;68628;48.714;9.472;2023-04-01T18:04:08;96988.78;;;9.76;67.09
79198;BME280;68628;48.714;9.472;2023-04-01T18:13:14;96986.56;;;9.80;67.00
79198;BME280;68628;48.714;9.472;2023-04-01T18:18:52;96999.72;;;9.80;66.90
79198;BME280;68628;48.714;9.472;2023-04-01T18:22:09;97003.34;;;9.79;67.41
79198;BME280;68628;48.714;9.472;2023-04-01T18:25:15;97007.81;;;9.78;66.76
79198;BME280;68628;48.714;9.472;2023-04-01T18:39:52;97029.72;;;9.92;67.92
79198;BME280;68628;48.714;9.472;2023-04-01T18:45:35;97051.13;;;9.76;70.75
79198;BME280;68628;48.714;9.472;2023-04-01T18:48:49;97050.84;;;9.57;72.84
79198;BME280;68628;48.714;9.472;2023-04-01T18:51:17;97069.84;;;9.46;73.24
79198;BME280;68628;48.714;9.472;2023-04-01T18:54:05;97076.91;;;9.45;73.90
79198;BME280;68628;48.714;9.472;2023-04-01T18:56:45;97077.22;;;9.22;73.17
79198;BME280;68628;48.714;9.472;2023-04-01T18:59:21;97077.28;;;9.36;72.68
79198;BME280;68628;48.714;9.472;2023-04-01T19:05:00;97076.72;;;9.05;72.81
79198;BME280;68628;48.714;9.472;2023-04-01T19:07:46;97079.56;;;9.10;73.20
79198;BME280;68628;48.714;9.472;2023-04-01T19:10:31;97081.22;;;9.18;72.77
79198;BME280;68628;48.714;9.472;2023-04-01T19:16:21;97084.44;;;9.13;70.92
79198;BME280;68628;48.714;9.472;2023-04-01T19:25:43;97084.31;;;8.93;71.27
79198;BME280;68628;48.714;9.472;2023-04-01T19:34:38;97090.78;;;8.69;70.81
79198;BME280;68628;48.714;9.472;2023-04-01T19:38:03;97098.81;;;8.61;71.62
79198;BME280;68628;48.714;9.472;2023-04-01T19:41:34;97097.38;;;8.58;71.97
79198;BME280;68628;48.714;9.472;2023-04-01T19:44:21;97103.56;;;8.50;72.66
79198;BME280;68628;48.714;9.472;2023-04-01T19:47:19;97104.00;;;8.54;72.32
79198;BME280;68628;48.714;9.472;2023-04-01T19:52:54;97095.44;;;8.67;71.71
79198;BME280;68628;48.714;9.472;2023-04-01T19:55:37;97101.00;;;8.57;72.71
79198;BME280;68628;48.714;9.472;2023-04-01T19:58:26;97102.31;;;8.46;72.43
79198;BME280;68628;48.714;9.472;2023-04-01T20:01:05;97106.50;;;8.41;72.82
79198;BME280;68628;48.714;9.472;2023-04-01T20:04:01;97106.78;;;8.46;73.26
79198;BME280;68628;48.714;9.472;2023-04-01T20:09:41;97118.91;;;8.47;73.60
79198;BME280;68628;48.714;9.472;2023-04-01T20:14:53;97118.63;;;8.42;73.58
79198;BME280;68628;48.714;9.472;2023-04-01T20:20:19;97129.56;;;8.24;74.87
79198;BME280;68628;48.714;9.472;2023-04-01T20:23:21;97135.25;;;8.27;74.08
79198;BME280;68628;48.714;9.472;2023-04-01T20:26:10;97135.31;;;8.34;73.69
79198;BME280;68628;48.714;9.472;2023-04-01T20:29:17;97152.88;;;8.33;74.01
79198;BME280;68628;48.714;9.472;2023-04-01T20:32:25;97141.41;;;8.41;73.98
79198;BME280;68628;48.714;9.472;2023-04-01T20:40:50;97144.91;;;8.27;75.25
79198;BME280;68628;48.714;9.472;2023-04-01T20:46:46;97150.09;;;8.20;76.33
79198;BME280;68628;48.714;9.472;2023-04-01T20:57:54;97154.06;;;8.31;75.41
79198;BME280;68628;48.714;9.472;2023-04-01T21:06:04;97150.84;;;8.14;76.40
79198;BME280;68628;48.714;9.472;2023-04-01T21:08:49;97155.78;;;8.24;76.51
79198;BME280;68628;48.714;9.472;2023-04-01T21:11:44;97157.97;;;8.20;76.28
79198;BME280;68628;48.714;9.472;2023-04-01T21:14:59;97163.97;;;8.14;76.68
79198;BME280;68628;48.714;9.472;2023-04-01T21:20:58;97167.34;;;8.29;76.01
79198;BME280;68628;48.714;9.472;2023-04-01T21:45:59;97190.75;;;8.09;76.94
79198;BME280;68628;48.714;9.472;2023-04-01T21:49:01;97191.31;;;8.05;77.23
79198;BME280;68628;48.714;9.472;2023-04-01T21:54:53;97200.28;;;7.95;77.38
79198;BME280;68628;48.714;9.472;2023-04-01T22:01:09;97200.75;;;7.84;78.00
79198;BME280;68628;48.714;9.472;2023-04-01T22:04:10;97201.75;;;7.83;78.03
79198;BME280;68628;48.714;9.472;2023-04-01T22:07:09;97202.84;;;7.89;78.36
79198;BME280;68628;48.714;9.472;2023-04-01T22:09:53;97208.81;;;7.82;77.92
79198;BME280;68628;48.714;9.472;2023-04-01T22:12:54;97208.25;;;7.87;77.83
79198;BME280;68628;48.714;9.472;2023-04-01T22:18:13;97215.47;;;8.00;76.98
79198;BME280;68628;48.714;9.472;2023-04-01T22:24:06;97211.06;;;8.00;76.92